createdAt,value
2018-09-05T00:00:03.478Z,99359.77
2018-09-05T00:02:37.775Z,99367.89
2018-09-05T00:05:12.600Z,99366.27
2018-09-05T00:07:48.949Z,99365.55
2018-09-05T00:10:23.579Z,99370.65
2018-09-05T00:12:58.892Z,99366.73
2018-09-05T00:15:33.720Z,99370.51
2018-09-05T00:18:09.696Z,99369.31
2018-09-05T00:20:39.965Z,99366.63
2018-09-05T00:23:15.464Z,99361.24
2018-09-05T00:25:49.919Z,99369.69
2018-09-05T00:28:24.783Z,99371.66
2018-09-05T00:31:00.568Z,99377.88
2018-09-05T00:33:36.322Z,99377.92
2018-09-05T00:36:11.762Z,99373.27
2018-09-05T00:38:47.847Z,99374.55
2018-09-05T00:41:23.623Z,99384.06
2018-09-05T00:43:58.993Z,99385.56
2018-09-05T00:46:33.807Z,99384.50
2018-09-05T00:49:11.942Z,99378.08
2018-09-05T00:51:47.222Z,99378.89
2018-09-05T00:54:22.967Z,99379.14
2018-09-05T00:56:58.485Z,99374.32
2018-09-05T00:59:27.817Z,99378.45
2018-09-05T01:01:56.420Z,99384.00
2018-09-05T01:04:25.317Z,99379.37
2018-09-05T01:06:53.977Z,99382.73
2018-09-05T01:09:22.615Z,99379.19
2018-09-05T01:11:51.213Z,99378.95
2018-09-05T01:14:19.814Z,99385.47
2018-09-05T01:16:49.211Z,99387.05
2018-09-05T01:19:17.801Z,99384.10
2018-09-05T01:21:46.359Z,99386.00
2018-09-05T01:24:14.954Z,99380.70
2018-09-05T01:26:43.509Z,99383.23
2018-09-05T01:29:12.144Z,99378.49
2018-09-05T01:31:40.645Z,99380.58
2018-09-05T01:34:09.229Z,99382.34
2018-09-05T01:36:43.601Z,99389.23
2018-09-05T01:39:18.460Z,99388.22
2018-09-05T01:41:47.189Z,99391.10
2018-09-05T01:44:15.748Z,99389.58
2018-09-05T01:46:44.256Z,99389.45
2018-09-05T01:49:12.789Z,99387.12
2018-09-05T01:51:41.284Z,99389.91
2018-09-05T01:54:09.811Z,99386.95
2018-09-05T01:56:38.321Z,99389.17
2018-09-05T01:59:06.850Z,99389.41
2018-09-05T02:01:35.400Z,99390.17
2018-09-05T02:04:03.969Z,99398.08
2018-09-05T02:06:32.496Z,99399.70
2018-09-05T02:09:01.052Z,99398.55
2018-09-05T02:11:29.574Z,99400.62
2018-09-05T02:13:58.132Z,99398.11
2018-09-05T02:16:26.648Z,99394.74
2018-09-05T02:18:55.259Z,99399.37
2018-09-05T02:21:23.776Z,99404.22
2018-09-05T02:23:52.328Z,99396.89
2018-09-05T02:26:21.289Z,99398.55
2018-09-05T02:28:49.893Z,99397.42
2018-09-05T02:31:19.404Z,99399.25
2018-09-05T02:33:48.031Z,99396.09
2018-09-05T02:36:16.768Z,99393.25
2018-09-05T02:38:45.713Z,99394.27
2018-09-05T02:41:14.543Z,99387.89
2018-09-05T02:43:48.208Z,99390.14
2018-09-05T02:46:16.768Z,99387.84
2018-09-05T02:48:45.318Z,99392.59
2018-09-05T02:51:14.013Z,99385.31
2018-09-05T02:53:42.573Z,99389.45
2018-09-05T02:56:11.141Z,99390.65
2018-09-05T02:58:39.666Z,99391.07
2018-09-05T03:01:08.268Z,99392.59
2018-09-05T03:03:36.820Z,99391.81
2018-09-05T03:06:05.518Z,99396.58
2018-09-05T03:08:34.091Z,99391.89
2018-09-05T03:11:02.713Z,99391.52
2018-09-05T03:13:31.273Z,99388.00
2018-09-05T03:16:06.280Z,99386.42
2018-09-05T03:18:35.256Z,99380.22
2018-09-05T03:21:03.809Z,99383.13
2018-09-05T03:23:32.458Z,99379.80
2018-09-05T03:26:00.938Z,99379.48
2018-09-05T03:28:29.453Z,99375.59
2018-09-05T03:30:58.008Z,99377.55
2018-09-05T03:33:26.524Z,99377.91
2018-09-05T03:35:57.821Z,99380.50
2018-09-05T03:38:32.185Z,99387.18
2018-09-05T03:41:06.784Z,99382.94
2018-09-05T03:43:49.347Z,99385.00
2018-09-05T03:46:26.157Z,99384.91
2018-09-05T03:49:08.045Z,99391.63
2018-09-05T03:51:43.548Z,99381.51
2018-09-05T03:54:18.810Z,99381.09
2018-09-05T03:56:53.718Z,99386.38
2018-09-05T03:59:31.982Z,99379.33
2018-09-05T04:02:07.548Z,99383.36
2018-09-05T04:04:43.634Z,99384.20
2018-09-05T04:07:12.414Z,99378.41
2018-09-05T04:09:40.909Z,99377.86
2018-09-05T04:12:09.480Z,99386.94
2018-09-05T04:14:38.002Z,99386.26
2018-09-05T04:17:06.703Z,99391.70
2018-09-05T04:19:35.216Z,99389.27
2018-09-05T04:22:03.814Z,99391.23
2018-09-05T04:24:32.948Z,99389.20
2018-09-05T04:27:01.697Z,99391.63
2018-09-05T04:29:30.352Z,99390.07
2018-09-05T04:31:58.891Z,99395.00
2018-09-05T04:34:27.413Z,99386.97
2018-09-05T04:36:57.597Z,99394.77
2018-09-05T04:39:26.154Z,99392.86
2018-09-05T04:41:55.538Z,99391.77
2018-09-05T04:44:25.239Z,99398.00
2018-09-05T04:46:54.841Z,99398.58
2018-09-05T04:49:23.410Z,99399.93
2018-09-05T04:51:51.940Z,99405.33
2018-09-05T04:54:20.472Z,99407.16
2018-09-05T04:56:49.013Z,99405.84
2018-09-05T04:59:17.596Z,99411.84
2018-09-05T05:01:46.209Z,99405.84
2018-09-05T05:04:15.117Z,99413.03
2018-09-05T05:06:44.044Z,99408.83
2018-09-05T05:09:13.145Z,99410.81
2018-09-05T05:11:42.584Z,99416.23
2018-09-05T05:14:14.532Z,99423.48
2018-09-05T05:16:44.189Z,99420.72
2018-09-05T05:19:12.709Z,99416.30
2018-09-05T05:21:47.806Z,99416.88
2018-09-05T05:24:18.138Z,99424.59
2018-09-05T05:26:47.461Z,99422.66
2018-09-05T05:29:16.097Z,99425.66
2018-09-05T05:31:46.660Z,99430.11
2018-09-05T05:34:17.510Z,99435.41
2018-09-05T05:36:46.487Z,99421.22
2018-09-05T05:39:15.117Z,99426.96
2018-09-05T05:41:43.661Z,99425.89
2018-09-05T05:44:12.169Z,99437.30
2018-09-05T05:46:40.745Z,99433.22
2018-09-05T05:49:09.295Z,99432.98
2018-09-05T05:51:37.820Z,99433.34
2018-09-05T05:54:06.373Z,99435.63
2018-09-05T05:56:34.902Z,99431.40
2018-09-05T05:59:03.457Z,99443.28
2018-09-05T06:01:32.037Z,99434.48
2018-09-05T06:04:00.595Z,99436.15
2018-09-05T06:06:29.204Z,99439.48
2018-09-05T06:08:57.710Z,99439.02
2018-09-05T06:11:26.309Z,99439.69
2018-09-05T06:13:54.864Z,99439.07
2018-09-05T06:16:23.365Z,99441.34
2018-09-05T06:18:51.917Z,99436.26
2018-09-05T06:21:20.436Z,99438.62
2018-09-05T06:23:48.993Z,99441.64
2018-09-05T06:26:17.532Z,99436.91
2018-09-05T06:28:46.072Z,99431.69
2018-09-05T06:31:14.701Z,99435.23
2018-09-05T06:33:43.161Z,99434.04
2018-09-05T06:36:11.944Z,99432.20
2018-09-05T06:38:40.493Z,99433.66
2018-09-05T06:41:09.021Z,99436.20
2018-09-05T06:43:37.576Z,99434.35
2018-09-05T06:46:06.153Z,99436.91
2018-09-05T06:48:34.762Z,99431.77
2018-09-05T06:51:06.741Z,99427.86
2018-09-05T06:53:36.585Z,99427.33
2018-09-05T06:56:05.333Z,99427.22
2018-09-05T06:58:34.392Z,99424.47
2018-09-05T07:01:02.932Z,99425.80
2018-09-05T07:03:31.547Z,99426.82
2018-09-05T07:06:02.496Z,99429.13
2018-09-05T07:08:31.193Z,99420.49
2018-09-05T07:10:59.731Z,99427.05
2018-09-05T07:13:40.154Z,99426.56
2018-09-05T07:16:10.670Z,99420.94
2018-09-05T07:18:40.674Z,99422.63
2018-09-05T07:21:11.054Z,99422.95
2018-09-05T07:23:41.598Z,99414.79
2018-09-05T07:26:11.976Z,99415.89
2018-09-05T07:28:41.730Z,99415.19
2018-09-05T07:31:11.628Z,99413.34
2018-09-05T07:33:40.338Z,99415.48
2018-09-05T07:36:08.925Z,99416.15
2018-09-05T07:38:37.490Z,99418.78
2018-09-05T07:41:12.898Z,99413.72
2018-09-05T07:43:41.746Z,99415.69
2018-09-05T07:46:10.244Z,99420.08
2018-09-05T07:48:39.121Z,99421.43
2018-09-05T07:51:07.698Z,99417.73
2018-09-05T07:53:36.300Z,99420.34
2018-09-05T07:56:04.839Z,99421.83
2018-09-05T07:58:33.388Z,99420.88
2018-09-05T08:01:02.006Z,99417.56
2018-09-05T08:03:30.672Z,99423.99
2018-09-05T08:05:59.233Z,99422.19
2018-09-05T08:08:27.761Z,99420.55
2018-09-05T08:10:56.324Z,99425.98
2018-09-05T08:13:24.852Z,99423.22
2018-09-05T08:15:53.420Z,99418.64
2018-09-05T08:18:30.627Z,99414.05
2018-09-05T08:21:01.959Z,99413.98
2018-09-05T08:23:35.436Z,99413.98
2018-09-05T08:26:05.085Z,99414.55
2018-09-05T08:28:35.413Z,99411.77
2018-09-05T08:31:07.170Z,99412.69
2018-09-05T08:33:38.198Z,99405.66
2018-09-05T08:36:08.901Z,99414.27
2018-09-05T08:38:39.227Z,99410.48
2018-09-05T08:41:10.051Z,99413.19
2018-09-05T08:43:40.329Z,99408.61
2018-09-05T08:46:15.097Z,99403.62
2018-09-05T08:48:45.788Z,99407.19
2018-09-05T08:51:15.865Z,99408.67
2018-09-05T08:53:51.151Z,99413.16
2018-09-05T08:56:22.492Z,99407.16
2018-09-05T08:58:53.593Z,99403.92
2018-09-05T09:03:03.403Z,99407.14
2018-09-05T09:05:35.959Z,99403.01
2018-09-05T09:08:07.496Z,99397.84
2018-09-05T09:10:36.719Z,99399.83
2018-09-05T09:13:12.188Z,99403.72
2018-09-05T09:15:48.159Z,99400.69
2018-09-05T09:18:23.759Z,99397.66
2018-09-05T09:23:05.139Z,99397.84
2018-09-05T09:25:36.322Z,99398.16
2018-09-05T09:28:10.449Z,99391.80
2018-09-05T09:30:41.553Z,99390.28
2018-09-05T09:33:11.710Z,99388.77
2018-09-05T09:35:45.097Z,99384.44
2018-09-05T09:38:18.904Z,99381.63
2018-09-05T09:40:47.461Z,99383.05
2018-09-05T09:43:17.984Z,99378.77
2018-09-05T09:45:51.472Z,99374.06
2018-09-05T09:48:22.479Z,99375.88
2018-09-05T09:50:53.457Z,99372.21
2018-09-05T09:53:24.693Z,99374.06
2018-09-05T09:55:55.337Z,99372.73
2018-09-05T09:58:25.113Z,99374.44
2018-09-05T10:01:00.890Z,99371.28
2018-09-05T10:03:36.270Z,99366.98
2018-09-05T10:06:12.393Z,99362.42
2018-09-05T10:08:46.013Z,99366.88
2018-09-05T10:11:21.990Z,99365.36
2018-09-05T10:13:58.915Z,99359.81
2018-09-05T10:16:34.764Z,99355.73
2018-09-05T10:19:09.468Z,99349.38
2018-09-05T10:21:39.857Z,99352.29
2018-09-05T10:24:11.110Z,99349.45
2018-09-05T10:26:50.456Z,99349.74
2018-09-05T10:29:20.979Z,99345.42
2018-09-05T10:31:52.987Z,99338.52
2018-09-05T10:34:23.212Z,99341.24
2018-09-05T10:36:51.846Z,99336.92
2018-09-05T10:39:27.596Z,99332.53
2018-09-05T10:41:59.070Z,99324.13
2018-09-05T10:44:30.971Z,99323.34
2018-09-05T10:47:03.876Z,99326.81
2018-09-05T10:49:34.489Z,99321.75
2018-09-05T10:52:11.434Z,99326.39
2018-09-05T10:54:41.089Z,99320.05
2018-09-05T10:57:10.782Z,99317.13
2018-09-05T10:59:41.936Z,99319.07
2018-09-05T11:02:13.666Z,99318.46
2018-09-05T11:04:45.053Z,99313.81
2018-09-05T11:07:20.167Z,99315.41
2018-09-05T11:09:52.870Z,99316.02
2018-09-05T11:12:22.754Z,99311.30
2018-09-05T11:14:56.193Z,99312.73
2018-09-05T11:17:25.537Z,99312.55
2018-09-05T11:19:55.990Z,99310.16
2018-09-05T11:22:29.258Z,99305.20
2018-09-05T11:25:06.715Z,99299.49
2018-09-05T11:27:37.991Z,99296.89
2018-09-05T11:30:11.308Z,99298.42
2018-09-05T11:32:40.326Z,99293.34
2018-09-05T11:35:10.176Z,99285.66
2018-09-05T11:37:43.045Z,99283.77
2018-09-05T11:40:14.704Z,99287.08
2018-09-05T11:42:47.294Z,99290.27
2018-09-05T11:45:17.853Z,99288.22
2018-09-05T11:47:51.167Z,99287.08
2018-09-05T11:50:23.937Z,99293.98
2018-09-05T11:52:55.809Z,99289.46
2018-09-05T11:55:29.536Z,99286.19
2018-09-05T11:58:09.134Z,99286.67
2018-09-05T12:00:43.591Z,99286.84
2018-09-05T12:03:12.540Z,99286.30
2018-09-05T12:05:45.280Z,99289.48
2018-09-05T12:08:15.427Z,99281.06
2018-09-05T12:10:48.451Z,99275.81
2018-09-05T12:13:20.383Z,99275.46
2018-09-05T12:15:49.838Z,99268.38
2018-09-05T12:18:18.912Z,99265.53
2018-09-05T12:20:49.368Z,99261.77
2018-09-05T12:23:19.756Z,99257.39
2018-09-05T12:25:49.325Z,99252.23
2018-09-05T12:28:21.853Z,99253.89
2018-09-05T12:30:50.604Z,99252.20
2018-09-05T12:33:23.619Z,99254.23
2018-09-05T12:35:53.762Z,99254.25
2018-09-05T12:38:25.774Z,99249.06
2018-09-05T12:40:59.674Z,99244.52
2018-09-05T12:43:30.886Z,99249.09
2018-09-05T12:46:00.935Z,99240.24
2018-09-05T12:48:31.221Z,99242.36
2018-09-05T12:51:01.201Z,99238.64
2018-09-05T12:53:32.743Z,99229.07
2018-09-05T12:56:02.097Z,99238.16
2018-09-05T12:58:33.688Z,99240.80
2018-09-05T13:01:07.780Z,99235.01
2018-09-05T13:03:44.269Z,99237.89
2018-09-05T13:06:15.225Z,99232.65
2018-09-05T13:08:54.009Z,99235.52
2018-09-05T13:11:23.768Z,99225.08
2018-09-05T13:13:52.908Z,99224.72
2018-09-05T13:16:28.385Z,99219.94
2018-09-05T13:18:57.832Z,99214.77
2018-09-05T13:21:27.114Z,99218.41
2018-09-05T13:23:57.308Z,99223.05
2018-09-05T13:26:26.606Z,99216.83
2018-09-05T13:28:55.665Z,99225.73
2018-09-05T13:31:25.780Z,99223.28
2018-09-05T13:34:00.891Z,99221.52
2018-09-05T13:36:32.504Z,99217.98
2018-09-05T13:39:08.831Z,99215.57
2018-09-05T13:41:45.684Z,99218.35
2018-09-05T13:44:15.681Z,99211.50
2018-09-05T13:46:45.557Z,99207.87
2018-09-05T13:49:17.049Z,99216.60
2018-09-05T13:51:54.319Z,99218.77
2018-09-05T13:54:23.934Z,99207.09
2018-09-05T13:56:52.496Z,99207.60
2018-09-05T13:59:22.616Z,99208.70
2018-09-05T14:01:55.098Z,99207.70
2018-09-05T14:04:24.798Z,99196.98
2018-09-05T14:06:56.294Z,99188.63
2018-09-05T14:09:25.332Z,99188.41
2018-09-05T14:11:57.529Z,99194.75
2018-09-05T14:14:29.641Z,99185.78
2018-09-05T14:17:03.433Z,99189.81
2018-09-05T14:19:32.478Z,99188.19
2018-09-05T14:22:02.942Z,99185.20
2018-09-05T14:24:36.089Z,99182.41
2018-09-05T14:27:04.718Z,99183.11
2018-09-05T14:29:33.277Z,99183.63
2018-09-05T14:32:01.790Z,99176.55
2018-09-05T14:34:30.329Z,99170.95
2018-09-05T14:36:58.873Z,99171.75
2018-09-05T14:39:27.453Z,99168.38
2018-09-05T14:41:57.041Z,99156.86
2018-09-05T14:44:25.625Z,99162.03
2018-09-05T14:46:54.180Z,99160.72
2018-09-05T14:49:25.701Z,99160.33
2018-09-05T14:51:54.361Z,99159.30
2018-09-05T14:54:22.900Z,99164.75
2018-09-05T14:56:51.434Z,99159.95
2018-09-05T14:59:19.941Z,99169.61
2018-09-05T15:01:48.531Z,99161.40
2018-09-05T15:04:17.093Z,99166.14
2018-09-05T15:06:45.717Z,99169.91
2018-09-05T15:09:14.300Z,99163.29
2018-09-05T15:11:42.852Z,99161.62
2018-09-05T15:14:11.530Z,99159.02
2018-09-05T15:16:40.064Z,99164.93
2018-09-05T15:19:08.609Z,99166.91
2018-09-05T15:21:37.429Z,99167.27
2018-09-05T15:24:05.952Z,99178.81
2018-09-05T15:26:35.210Z,99177.37
2018-09-05T15:29:03.772Z,99167.76
2018-09-05T15:31:32.402Z,99162.00
2018-09-05T15:34:00.925Z,99162.52
2018-09-05T15:36:29.857Z,99160.28
2018-09-05T15:38:58.373Z,99159.98
2018-09-05T15:41:27.261Z,99159.62
2018-09-05T15:43:55.762Z,99157.52
2018-09-05T15:46:24.338Z,99160.28
2018-09-05T15:48:52.933Z,99156.25
2018-09-05T15:51:21.475Z,99159.31
2018-09-05T15:53:50.070Z,99158.42
2018-09-05T15:56:18.590Z,99157.67
2018-09-05T15:58:47.130Z,99151.23
2018-09-05T16:01:17.815Z,99161.76
2018-09-05T16:03:46.519Z,99164.54
2018-09-05T16:06:15.113Z,99159.64
2018-09-05T16:08:43.664Z,99159.11
2018-09-05T16:11:14.653Z,99156.83
2018-09-05T16:13:43.176Z,99154.60
2018-09-05T16:16:11.721Z,99168.41
2018-09-05T16:18:40.249Z,99173.82
2018-09-05T16:21:08.824Z,99167.02
2018-09-05T16:23:37.381Z,99170.41
2018-09-05T16:26:06.365Z,99161.70
2018-09-05T16:28:34.956Z,99161.61
2018-09-05T16:31:03.501Z,99159.94
2018-09-05T16:33:32.140Z,99157.27
2018-09-05T16:36:00.676Z,99166.83
2018-09-05T16:38:29.232Z,99159.58
2018-09-05T16:40:57.797Z,99161.25
2018-09-05T16:45:54.394Z,99158.92
2018-09-05T16:48:22.968Z,99153.94
2018-09-05T16:50:51.510Z,99153.77
2018-09-05T16:53:20.058Z,99150.94
2018-09-05T16:55:48.640Z,99150.08
2018-09-05T16:58:17.281Z,99141.52
2018-09-05T17:00:45.842Z,99140.16
2018-09-05T17:03:14.394Z,99133.05
2018-09-05T17:05:43.186Z,99134.82
2018-09-05T17:08:11.741Z,99132.27
2018-09-05T17:10:40.598Z,99134.55
2018-09-05T17:13:09.251Z,99138.17
2018-09-05T17:15:37.760Z,99129.95
2018-09-05T17:18:06.557Z,99135.15
2018-09-05T17:20:35.369Z,99134.86
2018-09-05T17:23:05.202Z,99133.21
2018-09-05T17:25:36.055Z,99133.64
2018-09-05T17:28:06.460Z,99134.98
2018-09-05T17:30:35.164Z,99129.20
2018-09-05T17:33:03.681Z,99133.84
2018-09-05T17:35:32.484Z,99132.95
2018-09-05T17:38:01.021Z,99137.31
2018-09-05T17:40:29.532Z,99140.52
2018-09-05T17:42:58.268Z,99141.88
2018-09-05T17:45:29.251Z,99141.95
2018-09-05T17:47:58.681Z,99143.31
2018-09-05T17:50:28.024Z,99142.61
2018-09-05T17:52:56.862Z,99145.30
2018-09-05T17:55:29.305Z,99139.97
2018-09-05T17:57:58.072Z,99136.79
2018-09-05T18:00:26.776Z,99147.31
2018-09-05T18:03:05.144Z,99147.47
2018-09-05T18:05:33.894Z,99147.16
2018-09-05T18:08:02.472Z,99143.48
2018-09-05T18:10:31.016Z,99146.66
2018-09-05T18:13:08.590Z,99143.97
2018-09-05T18:15:37.148Z,99142.80
2018-09-05T18:18:05.721Z,99140.80
2018-09-05T18:20:34.333Z,99146.30
2018-09-05T18:23:02.928Z,99152.97
2018-09-05T18:25:31.512Z,99151.92
2018-09-05T18:28:00.053Z,99160.89
2018-09-05T18:30:31.445Z,99157.83
2018-09-05T18:33:04.516Z,99153.17
2018-09-05T18:35:33.252Z,99155.17
2018-09-05T18:38:06.410Z,99156.81
2018-09-05T18:40:35.125Z,99149.36
2018-09-05T18:43:03.665Z,99151.52
2018-09-05T18:45:32.408Z,99149.86
2018-09-05T18:48:05.605Z,99154.84
2018-09-05T18:50:40.107Z,99148.50
2018-09-05T18:53:11.356Z,99151.83
2018-09-05T18:55:41.222Z,99147.33
2018-09-05T18:58:09.769Z,99149.83
2018-09-05T19:00:38.506Z,99148.18
2018-09-05T19:03:07.953Z,99146.55
2018-09-05T19:05:36.607Z,99144.91
2018-09-05T19:08:05.453Z,99148.08
2018-09-05T19:10:33.984Z,99142.88
2018-09-05T19:13:05.864Z,99146.04
2018-09-05T19:15:34.528Z,99140.59
2018-09-05T19:18:03.047Z,99138.56
2018-09-05T19:20:33.126Z,99134.29
2018-09-05T19:23:01.687Z,99138.56
2018-09-05T19:25:32.515Z,99133.17
2018-09-05T19:28:02.181Z,99137.70
2018-09-05T19:30:35.768Z,99138.53
2018-09-05T19:33:04.488Z,99142.64
2018-09-05T19:35:33.053Z,99139.64
2018-09-05T19:38:03.355Z,99138.68
2018-09-05T19:40:32.102Z,99135.61
2018-09-05T19:43:03.659Z,99139.69
2018-09-05T19:45:33.047Z,99133.89
2018-09-05T19:48:07.270Z,99140.41
2018-09-05T19:50:42.093Z,99145.52
2018-09-05T19:53:13.086Z,99146.28
2018-09-05T19:55:46.021Z,99148.45
2018-09-05T19:58:18.670Z,99142.59
2018-09-05T20:00:47.465Z,99146.69
2018-09-05T20:03:17.901Z,99142.09
2018-09-05T20:05:49.512Z,99135.58
2018-09-05T20:08:22.439Z,99136.03
2018-09-05T20:10:58.456Z,99122.29
2018-09-05T20:13:37.638Z,99138.39
2018-09-05T20:16:17.116Z,99129.98
2018-09-05T20:18:53.795Z,99132.25
2018-09-05T20:21:39.873Z,99124.42
2018-09-05T20:24:19.734Z,99130.03
2018-09-05T20:27:03.684Z,99127.08
2018-09-05T20:29:42.144Z,99127.62
2018-09-05T20:32:28.314Z,99128.97
2018-09-05T20:40:48.094Z,99140.06
2018-09-05T20:43:31.336Z,99137.31
2018-09-05T20:46:11.278Z,99135.12
2018-09-05T20:48:52.740Z,99134.66
2018-09-05T20:51:33.789Z,99134.51
2018-09-05T20:54:14.383Z,99132.03
2018-09-05T20:56:54.950Z,99129.91
2018-09-05T20:59:45.349Z,99117.67
2018-09-05T21:02:23.664Z,99123.28
2018-09-05T21:05:11.789Z,99123.27
2018-09-05T21:07:55.534Z,99118.74
2018-09-05T21:10:34.137Z,99118.89
2018-09-05T21:13:08.474Z,99128.00
2018-09-05T21:15:47.879Z,99129.09
2018-09-05T21:18:19.321Z,99137.64
2018-09-05T21:20:54.425Z,99125.20
2018-09-05T21:23:28.680Z,99125.42
2018-09-05T21:25:59.703Z,99136.42
2018-09-05T21:28:31.870Z,99125.47
2018-09-05T21:31:04.128Z,99136.56
2018-09-05T21:33:36.856Z,99142.95
2018-09-05T21:36:13.195Z,99138.35
2018-09-05T21:38:43.857Z,99136.52
2018-09-05T21:41:15.074Z,99133.56
2018-09-05T21:43:47.141Z,99135.09
2018-09-05T21:46:21.235Z,99136.19
2018-09-05T21:48:55.558Z,99139.86
2018-09-05T21:51:31.745Z,99134.41
2018-09-05T21:54:02.298Z,99138.20
2018-09-05T21:56:32.125Z,99132.31
2018-09-05T21:59:02.414Z,99128.22
2018-09-05T22:01:34.369Z,99128.91
2018-09-05T22:04:03.074Z,99128.86
2018-09-05T22:06:33.047Z,99134.32
2018-09-05T22:09:01.825Z,99141.06
2018-09-05T22:11:31.353Z,99143.41
2018-09-05T22:14:04.900Z,99149.28
2018-09-05T22:16:33.925Z,99141.06
2018-09-05T22:19:02.479Z,99134.34
2018-09-05T22:21:35.917Z,99132.13
2018-09-05T22:24:08.958Z,99136.70
2018-09-05T22:26:38.566Z,99134.04
2018-09-05T22:29:08.944Z,99135.67
2018-09-05T22:31:37.455Z,99131.14
2018-09-05T22:34:05.990Z,99125.20
2018-09-05T22:36:34.497Z,99117.14
2018-09-05T22:39:05.039Z,99127.66
2018-09-05T22:41:33.568Z,99120.91
2018-09-05T22:44:13.348Z,99111.48
2018-09-05T22:50:08.076Z,99110.69
2018-09-05T22:53:08.901Z,99114.72
2018-09-05T22:56:56.996Z,99108.41
2018-09-05T22:59:37.554Z,99109.44
2018-09-05T23:02:49.297Z,99098.24
2018-09-05T23:07:36.852Z,99096.68
2018-09-05T23:10:16.553Z,99088.56
2018-09-05T23:12:56.420Z,99086.20
2018-09-05T23:15:36.297Z,99091.12
2018-09-05T23:18:44.126Z,99069.57
2018-09-05T23:21:18.650Z,99083.06
2018-09-05T23:23:53.169Z,99083.69
2018-09-05T23:26:21.762Z,99082.16
2018-09-05T23:28:50.278Z,99078.72
2018-09-05T23:31:18.887Z,99086.34
2018-09-05T23:33:47.441Z,99080.59
2018-09-05T23:36:16.327Z,99082.47
2018-09-05T23:38:44.849Z,99083.50
2018-09-05T23:41:13.422Z,99080.11
2018-09-05T23:43:41.953Z,99074.36
2018-09-05T23:46:10.690Z,99071.46
2018-09-05T23:48:39.430Z,99072.16
2018-09-05T23:51:08.011Z,99070.00
2018-09-05T23:53:36.728Z,99074.16
2018-09-05T23:56:05.632Z,99074.76
2018-09-05T23:58:34.159Z,99070.07
